sensor_id;sensor_type;location;lat;lon;timestamp;pressure;altitude;pressure_sealevel;temperature;humidity
71194;BME280;58903;47.210;8.618;2023-12-20T00:01:15;94376.09;;;26.10;36.72
71194;BME280;58903;47.210;8.618;2023-12-20T00:03:41;94362.53;;;26.12;37.21
71194;BME280;58903;47.210;8.618;2023-12-20T00:06:10;94364.56;;;26.12;36.61
71194;BME280;58903;47.210;8.618;2023-12-20T00:08:37;94373.56;;;26.12;36.57
71194;BME280;58903;47.210;8.618;2023-12-20T00:11:03;94365.81;;;26.11;36.76
71194;BME280;58903;47.210;8.618;2023-12-20T00:13:29;94359.56;;;26.10;37.04
71194;BME280;58903;47.210;8.618;2023-12-20T00:15:57;94359.56;;;26.10;37.13
71194;BME280;58903;47.210;8.618;2023-12-20T00:18:23;94359.56;;;26.10;36.66
71194;BME280;58903;47.210;8.618;2023-12-20T00:20:59;94369.34;;;26.11;36.68
71194;BME280;58903;47.210;8.618;2023-12-20T00:23:32;94374.84;;;26.11;36.94
71194;BME280;58903;47.210;8.618;2023-12-20T00:26:00;94378.84;;;26.10;36.97
71194;BME280;58903;47.210;8.618;2023-12-20T00:28:26;94382.34;;;26.11;36.77
71194;BME280;58903;47.210;8.618;2023-12-20T00:30:54;94393.91;;;26.09;36.26
71194;BME280;58903;47.210;8.618;2023-12-20T00:33:21;94388.88;;;26.08;36.28
71194;BME280;58903;47.210;8.618;2023-12-20T00:35:48;94380.13;;;26.09;36.85
71194;BME280;58903;47.210;8.618;2023-12-20T00:38:16;94381.88;;;26.07;37.21
71194;BME280;58903;47.210;8.618;2023-12-20T00:40:46;94363.09;;;26.05;36.92
71194;BME280;58903;47.210;8.618;2023-12-20T00:43:12;94371.38;;;26.05;36.40
71194;BME280;58903;47.210;8.618;2023-12-20T00:45:39;94356.84;;;26.05;36.55
71194;BME280;58903;47.210;8.618;2023-12-20T00:48:05;94345.06;;;26.04;36.56
71194;BME280;58903;47.210;8.618;2023-12-20T00:50:31;94345.28;;;26.06;36.92
71194;BME280;58903;47.210;8.618;2023-12-20T00:53:00;94345.06;;;26.04;36.93
71194;BME280;58903;47.210;8.618;2023-12-20T00:55:33;94353.56;;;26.06;36.74
71194;BME280;58903;47.210;8.618;2023-12-20T00:57:59;94356.06;;;26.04;36.75
71194;BME280;58903;47.210;8.618;2023-12-20T01:00:26;94353.56;;;26.06;36.53
71194;BME280;58903;47.210;8.618;2023-12-20T01:02:55;94343.53;;;26.03;37.18
71194;BME280;58903;47.210;8.618;2023-12-20T01:05:31;94332.53;;;26.03;36.36
71194;BME280;58903;47.210;8.618;2023-12-20T01:08:08;94346.56;;;26.05;36.77
71194;BME280;58903;47.210;8.618;2023-12-20T01:10:34;94352.06;;;26.05;36.24
71194;BME280;58903;47.210;8.618;2023-12-20T01:13:01;94345.06;;;26.04;36.26
71194;BME280;58903;47.210;8.618;2023-12-20T01:15:38;94350.56;;;26.04;36.29
71194;BME280;58903;47.210;8.618;2023-12-20T01:18:28;94356.84;;;26.05;36.22
71194;BME280;58903;47.210;8.618;2023-12-20T01:21:25;94356.06;;;26.04;36.43
71194;BME280;58903;47.210;8.618;2023-12-20T01:24:00;94352.06;;;26.05;36.38
71194;BME280;58903;47.210;8.618;2023-12-20T01:26:28;94348.56;;;26.05;36.60
71194;BME280;58903;47.210;8.618;2023-12-20T01:29:21;94340.28;;;26.05;36.77
71194;BME280;58903;47.210;8.618;2023-12-20T01:31:52;94333.78;;;26.02;36.76
71194;BME280;58903;47.210;8.618;2023-12-20T01:34:19;94334.31;;;26.01;36.34
71194;BME280;58903;47.210;8.618;2023-12-20T01:36:53;94340.28;;;26.05;36.28
71194;BME280;58903;47.210;8.618;2023-12-20T01:39:37;94346.31;;;26.03;36.09
71194;BME280;58903;47.210;8.618;2023-12-20T01:45:21;94339.31;;;26.02;36.21
71194;BME280;58903;47.210;8.618;2023-12-20T01:47:58;94327.81;;;25.98;36.21
71194;BME280;58903;47.210;8.618;2023-12-20T01:50:37;94329.53;;;26.01;36.33
71194;BME280;58903;47.210;8.618;2023-12-20T01:53:18;94336.56;;;26.02;36.61
71194;BME280;58903;47.210;8.618;2023-12-20T01:55:50;94339.09;;;26.00;36.35
71194;BME280;58903;47.210;8.618;2023-12-20T01:58:25;94337.81;;;26.01;36.87
71194;BME280;58903;47.210;8.618;2023-12-20T02:01:12;94350.84;;;26.01;36.26
71194;BME280;58903;47.210;8.618;2023-12-20T02:04:14;94353.09;;;26.02;36.80
71194;BME280;58903;47.210;8.618;2023-12-20T02:07:14;94346.06;;;26.01;36.13
71194;BME280;58903;47.210;8.618;2023-12-20T02:10:03;94346.59;;;26.00;36.08
71194;BME280;58903;47.210;8.618;2023-12-20T02:12:30;94335.03;;;26.01;36.70
71194;BME280;58903;47.210;8.618;2023-12-20T02:15:15;94326.56;;;25.99;36.12
71194;BME280;58903;47.210;8.618;2023-12-20T02:17:42;94333.56;;;26.00;36.75
71194;BME280;58903;47.210;8.618;2023-12-20T02:20:10;94322.53;;;26.00;36.56
71194;BME280;58903;47.210;8.618;2023-12-20T02:22:45;94332.06;;;25.99;36.43
71194;BME280;58903;47.210;8.618;2023-12-20T02:25:21;94332.06;;;25.99;36.39
71194;BME280;58903;47.210;8.618;2023-12-20T02:28:02;94338.09;;;25.98;36.16
71194;BME280;58903;47.210;8.618;2023-12-20T02:30:38;94330.13;;;25.94;36.13
71194;BME280;58903;47.210;8.618;2023-12-20T02:33:14;94326.31;;;25.97;36.91
71194;BME280;58903;47.210;8.618;2023-12-20T02:35:49;94329.06;;;25.97;36.88
71194;BME280;58903;47.210;8.618;2023-12-20T02:38:16;94328.31;;;25.97;36.89
71194;BME280;58903;47.210;8.618;2023-12-20T02:40:51;94326.09;;;25.95;37.00
71194;BME280;58903;47.210;8.618;2023-12-20T02:43:19;94324.84;;;25.96;36.54
71194;BME280;58903;47.210;8.618;2023-12-20T02:45:46;94333.84;;;25.97;36.26
71194;BME280;58903;47.210;8.618;2023-12-20T02:48:18;94328.09;;;25.95;36.20
71194;BME280;58903;47.210;8.618;2023-12-20T02:50:52;94326.84;;;25.96;35.98
71194;BME280;58903;47.210;8.618;2023-12-20T02:53:21;94336.34;;;25.95;36.29
71194;BME280;58903;47.210;8.618;2023-12-20T02:55:47;94338.38;;;25.94;36.70
71194;BME280;58903;47.210;8.618;2023-12-20T02:58:30;94352.91;;;25.95;36.89
71194;BME280;58903;47.210;8.618;2023-12-20T03:01:00;94353.13;;;25.97;36.67
71194;BME280;58903;47.210;8.618;2023-12-20T03:03:30;94355.16;;;25.96;36.67
71194;BME280;58903;47.210;8.618;2023-12-20T03:06:11;94366.19;;;25.96;35.96
71194;BME280;58903;47.210;8.618;2023-12-20T03:08:37;94369.16;;;25.98;36.75
71194;BME280;58903;47.210;8.618;2023-12-20T03:11:05;94365.47;;;25.90;36.14
71194;BME280;58903;47.210;8.618;2023-12-20T03:13:31;94368.47;;;25.92;36.07
71194;BME280;58903;47.210;8.618;2023-12-20T03:15:57;94357.19;;;25.90;36.70
71194;BME280;58903;47.210;8.618;2023-12-20T03:18:25;94370.97;;;25.90;35.99
71194;BME280;58903;47.210;8.618;2023-12-20T03:21:20;94369.72;;;25.91;36.77
71194;BME280;58903;47.210;8.618;2023-12-20T03:23:56;94377.75;;;25.89;36.40
71194;BME280;58903;47.210;8.618;2023-12-20T03:26:22;94373.06;;;25.79;36.39
71194;BME280;58903;47.210;8.618;2023-12-20T03:28:48;94384.09;;;25.79;36.78
71194;BME280;58903;47.210;8.618;2023-12-20T03:31:22;94383.81;;;25.82;36.57
71194;BME280;58903;47.210;8.618;2023-12-20T03:33:47;94383.34;;;25.78;36.51
71194;BME280;58903;47.210;8.618;2023-12-20T03:36:23;94376.31;;;25.83;36.95
71194;BME280;58903;47.210;8.618;2023-12-20T03:38:53;94380.53;;;25.84;36.87
71194;BME280;58903;47.210;8.618;2023-12-20T03:41:21;94388.56;;;25.82;36.65
71194;BME280;58903;47.210;8.618;2023-12-20T03:43:49;94376.34;;;25.77;36.49
71194;BME280;58903;47.210;8.618;2023-12-20T03:46:18;94372.63;;;25.75;36.38
71194;BME280;58903;47.210;8.618;2023-12-20T03:48:48;94374.56;;;25.80;36.81
71194;BME280;58903;47.210;8.618;2023-12-20T03:51:18;94376.59;;;25.79;36.34
71194;BME280;58903;47.210;8.618;2023-12-20T03:53:46;94368.78;;;25.83;36.17
71194;BME280;58903;47.210;8.618;2023-12-20T03:56:12;94357.78;;;25.78;36.82
71194;BME280;58903;47.210;8.618;2023-12-20T03:58:39;94364.59;;;25.77;36.27
71194;BME280;58903;47.210;8.618;2023-12-20T04:01:14;94355.09;;;25.72;36.99
71194;BME280;58903;47.210;8.618;2023-12-20T04:03:41;94350.81;;;25.77;36.55
71194;BME280;58903;47.210;8.618;2023-12-20T04:06:09;94362.81;;;25.79;36.76
71194;BME280;58903;47.210;8.618;2023-12-20T04:08:35;94365.34;;;25.77;36.61
71194;BME280;58903;47.210;8.618;2023-12-20T04:11:05;94362.59;;;25.72;37.19
71194;BME280;58903;47.210;8.618;2023-12-20T04:13:37;94372.63;;;25.75;37.26
71194;BME280;58903;47.210;8.618;2023-12-20T04:16:04;94374.09;;;25.76;36.76
71194;BME280;58903;47.210;8.618;2023-12-20T04:18:38;94373.63;;;25.72;36.34
71194;BME280;58903;47.210;8.618;2023-12-20T04:21:22;94382.91;;;25.69;36.44
71194;BME280;58903;47.210;8.618;2023-12-20T04:24:20;94385.91;;;25.71;37.29
71194;BME280;58903;47.210;8.618;2023-12-20T04:26:49;94386.94;;;25.68;36.74
71194;BME280;58903;47.210;8.618;2023-12-20T04:29:14;94387.16;;;25.70;36.55
71194;BME280;58903;47.210;8.618;2023-12-20T04:31:40;94391.91;;;25.69;36.84
71194;BME280;58903;47.210;8.618;2023-12-20T04:34:07;94403.47;;;25.68;36.53
71194;BME280;58903;47.210;8.618;2023-12-20T04:36:36;94406.50;;;25.64;36.58
71194;BME280;58903;47.210;8.618;2023-12-20T04:39:02;94407.97;;;25.65;37.06
71194;BME280;58903;47.210;8.618;2023-12-20T04:41:29;94409.50;;;25.66;37.26
71194;BME280;58903;47.210;8.618;2023-12-20T04:44:00;94405.47;;;25.67;36.35
71194;BME280;58903;47.210;8.618;2023-12-20T04:46:52;94409.50;;;25.66;36.41
71194;BME280;58903;47.210;8.618;2023-12-20T04:49:27;94409.50;;;25.66;36.62
71194;BME280;58903;47.210;8.618;2023-12-20T04:51:53;94409.50;;;25.66;36.82
71194;BME280;58903;47.210;8.618;2023-12-20T04:54:51;94419.75;;;25.66;36.20
71194;BME280;58903;47.210;8.618;2023-12-20T04:57:21;94423.50;;;25.68;37.13
71194;BME280;58903;47.210;8.618;2023-12-20T05:00:05;94428.00;;;25.66;36.47
71194;BME280;58903;47.210;8.618;2023-12-20T05:02:38;94427.25;;;25.65;36.34
71194;BME280;58903;47.210;8.618;2023-12-20T05:05:17;94424.03;;;25.61;37.17
71194;BME280;58903;47.210;8.618;2023-12-20T05:07:52;94426.28;;;25.63;36.72
71194;BME280;58903;47.210;8.618;2023-12-20T05:10:27;94430.28;;;25.62;37.05
71194;BME280;58903;47.210;8.618;2023-12-20T05:12:55;94433.53;;;25.60;36.52
71194;BME280;58903;47.210;8.618;2023-12-20T05:15:28;94439.81;;;25.61;36.53
71194;BME280;58903;47.210;8.618;2023-12-20T05:18:03;94437.56;;;25.59;37.20
71194;BME280;58903;47.210;8.618;2023-12-20T05:20:41;94438.56;;;25.56;36.80
71194;BME280;58903;47.210;8.618;2023-12-20T05:23:07;94441.56;;;25.64;36.54
71194;BME280;58903;47.210;8.618;2023-12-20T05:25:34;94439.50;;;25.70;37.18
71194;BME280;58903;47.210;8.618;2023-12-20T05:28:00;94438.50;;;25.73;36.93
71194;BME280;58903;47.210;8.618;2023-12-20T05:30:32;94440.97;;;25.76;37.21
71194;BME280;58903;47.210;8.618;2023-12-20T05:32:58;94441.44;;;25.80;37.14
71194;BME280;58903;47.210;8.618;2023-12-20T05:35:24;94439.19;;;25.79;36.82
71194;BME280;58903;47.210;8.618;2023-12-20T05:37:55;94433.69;;;25.79;36.93
71194;BME280;58903;47.210;8.618;2023-12-20T05:40:32;94441.44;;;25.80;36.54
71194;BME280;58903;47.210;8.618;2023-12-20T05:42:58;94441.91;;;25.84;36.56
71194;BME280;58903;47.210;8.618;2023-12-20T05:48:50;94436.63;;;25.86;36.62
71194;BME280;58903;47.210;8.618;2023-12-20T05:51:19;94443.66;;;25.87;37.26
71194;BME280;58903;47.210;8.618;2023-12-20T05:53:45;94437.63;;;25.89;36.69
71194;BME280;58903;47.210;8.618;2023-12-20T05:56:14;94434.13;;;25.88;36.93
71194;BME280;58903;47.210;8.618;2023-12-20T05:58:56;94429.13;;;25.87;36.88
71194;BME280;58903;47.210;8.618;2023-12-20T06:01:24;94440.63;;;25.91;37.00
71194;BME280;58903;47.210;8.618;2023-12-20T06:03:50;94443.59;;;25.93;36.56
71194;BME280;58903;47.210;8.618;2023-12-20T06:06:27;94448.38;;;25.92;36.08
71194;BME280;58903;47.210;8.618;2023-12-20T06:09:05;94452.63;;;25.93;36.34
71194;BME280;58903;47.210;8.618;2023-12-20T06:11:34;94462.41;;;25.94;36.52
71194;BME280;58903;47.210;8.618;2023-12-20T06:14:16;94448.13;;;25.90;36.07
71194;BME280;58903;47.210;8.618;2023-12-20T06:16:43;94449.16;;;25.87;36.29
71194;BME280;58903;47.210;8.618;2023-12-20T06:19:10;94442.38;;;25.88;35.63
71194;BME280;58903;47.210;8.618;2023-12-20T06:21:41;94432.88;;;25.89;36.28
71194;BME280;58903;47.210;8.618;2023-12-20T06:24:26;94441.16;;;25.84;35.86
71194;BME280;58903;47.210;8.618;2023-12-20T06:26:54;94451.16;;;25.87;35.75
71194;BME280;58903;47.210;8.618;2023-12-20T06:29:21;94446.41;;;25.87;36.43
71194;BME280;58903;47.210;8.618;2023-12-20T06:32:13;94451.41;;;25.89;36.54
71194;BME280;58903;47.210;8.618;2023-12-20T06:34:41;94451.16;;;25.87;36.02
71194;BME280;58903;47.210;8.618;2023-12-20T06:37:08;94454.19;;;25.83;36.10
71194;BME280;58903;47.210;8.618;2023-12-20T06:39:35;94458.44;;;25.84;36.39
71194;BME280;58903;47.210;8.618;2023-12-20T06:42:02;94464.19;;;25.86;36.34
71194;BME280;58903;47.210;8.618;2023-12-20T06:44:30;94465.47;;;25.85;36.28
71194;BME280;58903;47.210;8.618;2023-12-20T06:47:17;94457.44;;;25.82;36.01
71194;BME280;58903;47.210;8.618;2023-12-20T06:49:42;94453.44;;;25.83;36.55
71194;BME280;58903;47.210;8.618;2023-12-20T06:52:09;94459.94;;;25.85;36.47
71194;BME280;58903;47.210;8.618;2023-12-20T06:54:37;94459.94;;;25.85;36.54
71194;BME280;58903;47.210;8.618;2023-12-20T06:57:18;94471.72;;;25.86;36.35
71194;BME280;58903;47.210;8.618;2023-12-20T06:59:45;94476.97;;;25.84;36.42
71194;BME280;58903;47.210;8.618;2023-12-20T07:02:11;94461.44;;;25.86;36.75
71194;BME280;58903;47.210;8.618;2023-12-20T07:04:41;94473.69;;;25.91;36.83
71194;BME280;58903;47.210;8.618;2023-12-20T07:07:07;94477.47;;;25.88;36.29
71194;BME280;58903;47.210;8.618;2023-12-20T07:09:33;94479.72;;;25.89;36.80
71194;BME280;58903;47.210;8.618;2023-12-20T07:12:00;94487.22;;;25.89;36.24
71194;BME280;58903;47.210;8.618;2023-12-20T07:14:31;94482.47;;;25.89;36.78
71194;BME280;58903;47.210;8.618;2023-12-20T07:17:04;94481.25;;;25.85;36.31
71194;BME280;58903;47.210;8.618;2023-12-20T07:19:31;94464.19;;;25.86;36.24
71194;BME280;58903;47.210;8.618;2023-12-20T07:21:58;94475.97;;;25.87;36.29
71194;BME280;58903;47.210;8.618;2023-12-20T07:24:25;94473.50;;;25.83;36.12
71194;BME280;58903;47.210;8.618;2023-12-20T07:26:51;94487.50;;;25.85;36.07
71194;BME280;58903;47.210;8.618;2023-12-20T07:29:20;94486.75;;;25.85;36.97
71194;BME280;58903;47.210;8.618;2023-12-20T07:31:48;94482.47;;;25.89;37.03
71194;BME280;58903;47.210;8.618;2023-12-20T07:34:24;94480.47;;;25.90;36.25
71194;BME280;58903;47.210;8.618;2023-12-20T07:36:53;94481.72;;;25.89;36.65
71194;BME280;58903;47.210;8.618;2023-12-20T07:39:21;94490.22;;;25.91;36.72
71194;BME280;58903;47.210;8.618;2023-12-20T07:41:47;94496.47;;;25.91;36.93
71194;BME280;58903;47.210;8.618;2023-12-20T07:44:13;94499.00;;;25.89;36.22
71194;BME280;58903;47.210;8.618;2023-12-20T07:46:40;94503.22;;;25.90;36.77
71194;BME280;58903;47.210;8.618;2023-12-20T07:49:10;94497.50;;;25.88;36.26
71194;BME280;58903;47.210;8.618;2023-12-20T07:51:39;94507.78;;;25.88;36.97
71194;BME280;58903;47.210;8.618;2023-12-20T07:54:05;94506.28;;;25.87;36.26
71194;BME280;58903;47.210;8.618;2023-12-20T07:56:31;94507.28;;;25.89;37.15
71194;BME280;58903;47.210;8.618;2023-12-20T07:58:58;94511.50;;;25.90;37.20
71194;BME280;58903;47.210;8.618;2023-12-20T08:01:36;94525.28;;;25.90;36.93
71194;BME280;58903;47.210;8.618;2023-12-20T08:04:04;94514.53;;;25.92;36.37
71194;BME280;58903;47.210;8.618;2023-12-20T08:06:37;94532.31;;;25.91;37.26
71194;BME280;58903;47.210;8.618;2023-12-20T08:09:04;94536.06;;;25.88;37.20
71194;BME280;58903;47.210;8.618;2023-12-20T08:11:39;94535.34;;;25.88;37.14
71194;BME280;58903;47.210;8.618;2023-12-20T08:14:07;94548.59;;;25.89;36.44
71194;BME280;58903;47.210;8.618;2023-12-20T08:16:35;94537.34;;;25.87;37.35
71194;BME280;58903;47.210;8.618;2023-12-20T08:19:30;94539.56;;;25.89;37.33
71194;BME280;58903;47.210;8.618;2023-12-20T08:22:00;94542.84;;;25.87;36.75
71194;BME280;58903;47.210;8.618;2023-12-20T08:24:27;94541.56;;;25.88;36.49
71194;BME280;58903;47.210;8.618;2023-12-20T08:27:05;94539.06;;;25.90;36.68
71194;BME280;58903;47.210;8.618;2023-12-20T08:29:33;94533.56;;;25.90;37.18
71194;BME280;58903;47.210;8.618;2023-12-20T08:32:04;94532.06;;;25.89;37.29
71194;BME280;58903;47.210;8.618;2023-12-20T08:34:51;94536.81;;;25.89;37.24
71194;BME280;58903;47.210;8.618;2023-12-20T08:37:32;94521.81;;;25.90;36.65
71194;BME280;58903;47.210;8.618;2023-12-20T08:40:18;94522.06;;;25.86;36.72
71194;BME280;58903;47.210;8.618;2023-12-20T08:42:47;94520.09;;;25.81;36.62
71194;BME280;58903;47.210;8.618;2023-12-20T08:45:22;94527.31;;;25.84;36.63
71194;BME280;58903;47.210;8.618;2023-12-20T08:47:59;94528.59;;;25.83;37.03
71194;BME280;58903;47.210;8.618;2023-12-20T08:50:26;94535.59;;;25.84;36.43
71194;BME280;58903;47.210;8.618;2023-12-20T08:53:01;94536.09;;;25.83;36.84
71194;BME280;58903;47.210;8.618;2023-12-20T08:55:27;94540.63;;;25.86;36.56
71194;BME280;58903;47.210;8.618;2023-12-20T08:58:01;94537.34;;;25.87;36.87
71194;BME280;58903;47.210;8.618;2023-12-20T09:00:33;94534.59;;;25.87;36.63
71194;BME280;58903;47.210;8.618;2023-12-20T09:03:01;94534.59;;;25.87;36.93
71194;BME280;58903;47.210;8.618;2023-12-20T09:05:29;94528.84;;;25.85;36.64
71194;BME280;58903;47.210;8.618;2023-12-20T09:08:06;94527.09;;;25.82;36.75
71194;BME280;58903;47.210;8.618;2023-12-20T09:10:35;94529.09;;;25.82;37.45
71194;BME280;58903;47.210;8.618;2023-12-20T09:13:05;94527.09;;;25.82;37.35
71194;BME280;58903;47.210;8.618;2023-12-20T09:15:37;94523.31;;;25.85;36.94
71194;BME280;58903;47.210;8.618;2023-12-20T09:18:05;94539.34;;;25.87;36.79
71194;BME280;58903;47.210;8.618;2023-12-20T09:20:31;94527.84;;;25.83;36.73
71194;BME280;58903;47.210;8.618;2023-12-20T09:22:57;94535.09;;;25.86;36.83
71194;BME280;58903;47.210;8.618;2023-12-20T09:25:27;94528.84;;;25.85;37.00
71194;BME280;58903;47.210;8.618;2023-12-20T09:28:07;94529.59;;;25.86;36.60
71194;BME280;58903;47.210;8.618;2023-12-20T09:30:36;94527.56;;;25.86;36.91
71194;BME280;58903;47.210;8.618;2023-12-20T09:33:05;94540.28;;;25.95;37.11
71194;BME280;58903;47.210;8.618;2023-12-20T09:35:35;94532.72;;;26.06;36.54
71194;BME280;58903;47.210;8.618;2023-12-20T09:38:03;94533.22;;;26.10;36.80
71194;BME280;58903;47.210;8.618;2023-12-20T09:40:32;94531.22;;;26.11;36.25
71194;BME280;58903;47.210;8.618;2023-12-20T09:43:11;94537.97;;;26.10;36.71
71194;BME280;58903;47.210;8.618;2023-12-20T09:45:45;94544.47;;;26.12;36.73
71194;BME280;58903;47.210;8.618;2023-12-20T09:48:27;94543.00;;;26.11;36.88
71194;BME280;58903;47.210;8.618;2023-12-20T09:50:56;94548.97;;;26.15;36.25
71194;BME280;58903;47.210;8.618;2023-12-20T09:53:36;94555.25;;;26.16;36.54
71194;BME280;58903;47.210;8.618;2023-12-20T09:56:05;94543.00;;;26.11;36.06
71194;BME280;58903;47.210;8.618;2023-12-20T09:58:59;94551.03;;;26.09;36.75
71194;BME280;58903;47.210;8.618;2023-12-20T10:01:28;94547.25;;;26.07;36.81
71194;BME280;58903;47.210;8.618;2023-12-20T10:04:27;94534.47;;;26.04;36.31
71194;BME280;58903;47.210;8.618;2023-12-20T10:07:29;94537.25;;;26.04;36.21
71194;BME280;58903;47.210;8.618;2023-12-20T10:10:26;94535.00;;;26.02;37.07
71194;BME280;58903;47.210;8.618;2023-12-20T10:13:22;94539.00;;;26.01;36.45
71194;BME280;58903;47.210;8.618;2023-12-20T10:16:01;94538.53;;;25.97;37.28
71194;BME280;58903;47.210;8.618;2023-12-20T10:18:29;94550.53;;;26.00;36.47
71194;BME280;58903;47.210;8.618;2023-12-20T10:20:57;94549.31;;;26.01;36.63
71194;BME280;58903;47.210;8.618;2023-12-20T10:23:23;94544.28;;;25.99;36.78
71194;BME280;58903;47.210;8.618;2023-12-20T10:26:00;94536.00;;;25.99;37.20
71194;BME280;58903;47.210;8.618;2023-12-20T10:28:42;94540.03;;;25.98;37.15
71194;BME280;58903;47.210;8.618;2023-12-20T10:31:08;94533.00;;;25.97;36.56
71194;BME280;58903;47.210;8.618;2023-12-20T10:33:34;94521.50;;;25.99;37.21
71194;BME280;58903;47.210;8.618;2023-12-20T10:36:03;94527.28;;;25.95;36.67
71194;BME280;58903;47.210;8.618;2023-12-20T10:38:42;94522.78;;;25.92;36.75
71194;BME280;58903;47.210;8.618;2023-12-20T10:41:09;94516.75;;;25.94;36.91
71194;BME280;58903;47.210;8.618;2023-12-20T10:43:44;94510.22;;;25.97;36.83
71194;BME280;58903;47.210;8.618;2023-12-20T10:46:20;94505.75;;;25.94;37.24
71194;BME280;58903;47.210;8.618;2023-12-20T10:48:48;94513.50;;;25.95;37.23
71194;BME280;58903;47.210;8.618;2023-12-20T10:51:17;94504.22;;;25.93;37.02
71194;BME280;58903;47.210;8.618;2023-12-20T10:53:47;94500.00;;;25.92;36.91
71194;BME280;58903;47.210;8.618;2023-12-20T10:56:18;94494.72;;;25.94;36.67
71194;BME280;58903;47.210;8.618;2023-12-20T10:58:45;94488.72;;;25.90;36.79
71194;BME280;58903;47.210;8.618;2023-12-20T11:01:14;94487.47;;;25.91;37.55
71194;BME280;58903;47.210;8.618;2023-12-20T11:03:59;94488.50;;;25.82;38.03
71194;BME280;58903;47.210;8.618;2023-12-20T11:09:41;94487.53;;;25.80;38.42
71194;BME280;58903;47.210;8.618;2023-12-20T11:12:13;94477.03;;;25.78;39.25
71194;BME280;58903;47.210;8.618;2023-12-20T11:14:51;94483.31;;;25.73;38.64
71194;BME280;58903;47.210;8.618;2023-12-20T11:17:18;94477.78;;;25.73;38.94
71194;BME280;58903;47.210;8.618;2023-12-20T11:22:22;94470.28;;;25.74;38.45
71194;BME280;58903;47.210;8.618;2023-12-20T11:24:51;94462.72;;;25.80;38.53
71194;BME280;58903;47.210;8.618;2023-12-20T11:27:19;94469.47;;;25.84;38.28
71194;BME280;58903;47.210;8.618;2023-12-20T11:29:58;94470.22;;;25.85;38.53
71194;BME280;58903;47.210;8.618;2023-12-20T11:32:29;94463.69;;;25.88;37.99
71194;BME280;58903;47.210;8.618;2023-12-20T11:34:57;94464.41;;;25.88;38.96
71194;BME280;58903;47.210;8.618;2023-12-20T11:37:37;94457.66;;;25.89;38.77
71194;BME280;58903;47.210;8.618;2023-12-20T11:40:06;94460.72;;;25.86;38.31
71194;BME280;58903;47.210;8.618;2023-12-20T11:42:43;94466.16;;;25.91;38.84
71194;BME280;58903;47.210;8.618;2023-12-20T11:45:13;94469.69;;;25.92;38.02
71194;BME280;58903;47.210;8.618;2023-12-20T11:47:46;94465.66;;;25.93;38.48
71194;BME280;58903;47.210;8.618;2023-12-20T11:50:13;94466.41;;;25.93;38.77
71194;BME280;58903;47.210;8.618;2023-12-20T11:52:40;94459.41;;;25.92;38.63
71194;BME280;58903;47.210;8.618;2023-12-20T11:55:09;94460.88;;;25.93;38.41
71194;BME280;58903;47.210;8.618;2023-12-20T11:57:36;94460.88;;;25.93;37.71
71194;BME280;58903;47.210;8.618;2023-12-20T12:00:04;94456.13;;;25.94;38.13
71194;BME280;58903;47.210;8.618;2023-12-20T12:02:36;94455.09;;;25.97;37.97
71194;BME280;58903;47.210;8.618;2023-12-20T12:05:03;94463.63;;;25.99;37.91
71194;BME280;58903;47.210;8.618;2023-12-20T12:07:31;94462.34;;;26.00;38.57
71194;BME280;58903;47.210;8.618;2023-12-20T12:10:01;94466.84;;;26.03;38.59
71194;BME280;58903;47.210;8.618;2023-12-20T12:12:30;94463.34;;;26.02;38.41
71194;BME280;58903;47.210;8.618;2023-12-20T12:14:58;94458.84;;;25.99;38.31
71194;BME280;58903;47.210;8.618;2023-12-20T12:17:23;94453.31;;;25.99;38.13
71194;BME280;58903;47.210;8.618;2023-12-20T12:19:51;94455.59;;;26.01;37.10
71194;BME280;58903;47.210;8.618;2023-12-20T12:22:21;94452.59;;;25.99;37.61
71194;BME280;58903;47.210;8.618;2023-12-20T12:24:52;94449.84;;;25.99;36.65
71194;BME280;58903;47.210;8.618;2023-12-20T12:27:18;94452.84;;;26.01;36.62
71194;BME280;58903;47.210;8.618;2023-12-20T12:30:04;94453.78;;;26.03;37.04
71194;BME280;58903;47.210;8.618;2023-12-20T12:32:33;94457.06;;;26.02;37.35
71194;BME280;58903;47.210;8.618;2023-12-20T12:35:03;94460.59;;;26.02;37.07
71194;BME280;58903;47.210;8.618;2023-12-20T12:37:34;94454.84;;;26.00;36.72
71194;BME280;58903;47.210;8.618;2023-12-20T12:40:01;94443.81;;;26.00;37.13
71194;BME280;58903;47.210;8.618;2023-12-20T12:42:27;94461.34;;;25.97;37.15
71194;BME280;58903;47.210;8.618;2023-12-20T12:44:59;94454.09;;;26.00;36.50
71194;BME280;58903;47.210;8.618;2023-12-20T12:47:28;94456.59;;;25.98;36.76
71194;BME280;58903;47.210;8.618;2023-12-20T12:49:58;94454.84;;;25.95;37.21
71194;BME280;58903;47.210;8.618;2023-12-20T12:52:25;94465.16;;;25.94;36.55
71194;BME280;58903;47.210;8.618;2023-12-20T12:54:53;94469.13;;;25.99;36.49
71194;BME280;58903;47.210;8.618;2023-12-20T12:57:22;94474.66;;;25.99;36.90
71194;BME280;58903;47.210;8.618;2023-12-20T12:59:50;94469.13;;;25.99;36.42
71194;BME280;58903;47.210;8.618;2023-12-20T13:02:16;94477.91;;;25.97;36.63
71194;BME280;58903;47.210;8.618;2023-12-20T13:04:44;94471.91;;;25.93;36.29
71194;BME280;58903;47.210;8.618;2023-12-20T13:07:19;94480.41;;;25.95;36.44
71194;BME280;58903;47.210;8.618;2023-12-20T13:09:48;94479.94;;;25.91;37.26
71194;BME280;58903;47.210;8.618;2023-12-20T13:12:14;94473.44;;;25.94;37.05
71194;BME280;58903;47.210;8.618;2023-12-20T13:14:40;94468.91;;;25.91;36.38
71194;BME280;58903;47.210;8.618;2023-12-20T13:17:06;94468.91;;;25.91;37.12
71194;BME280;58903;47.210;8.618;2023-12-20T13:19:35;94466.41;;;25.93;37.21
71194;BME280;58903;47.210;8.618;2023-12-20T13:22:01;94469.41;;;25.95;36.98
71194;BME280;58903;47.210;8.618;2023-12-20T13:24:34;94460.88;;;25.93;36.59
71194;BME280;58903;47.210;8.618;2023-12-20T13:27:07;94468.63;;;25.95;36.50
71194;BME280;58903;47.210;8.618;2023-12-20T13:29:35;94475.94;;;25.92;37.13
71194;BME280;58903;47.210;8.618;2023-12-20T13:32:15;94478.69;;;25.92;36.63
71194;BME280;58903;47.210;8.618;2023-12-20T13:34:45;94482.69;;;25.91;37.12
71194;BME280;58903;47.210;8.618;2023-12-20T13:37:11;94486.44;;;25.94;36.59